Airfield :
LOGIN :

Register | Disclaimer

   EN    FR    IT 

 










Legend :    VFR   Marginal VFR   IFR   Intensive IFR   Very Intensive IFR
Visi :
Ceiling :
>= 8 km
>= 3000ft
5 to 8 km
1000 to 3000 ft
1500m to 5 km
500 to 1000 ft
800 to 1500m
200 to 500 ft
< 800m
< 200 ft
Symbols :   Thunderstorms  Fog  Heavy snow  Heavy precipitations  Wind > 20 kt
SIGMETs :     Misc.  Thunderstorms  Icing  Turbulence  Mountain Waves  Volcanic Ashes







- Airport Elevation : 1017 ft
- Download approach charts


LFSL - Brive Souillac

CURRENT METAR :
  • 141830Z AUTO 31006KT CAVOK 24/13 Q1020 NOSIG

EXPIRED METARs :
  • 141800Z AUTO 33008KT 280V350 CAVOK 24/13 Q1020 NOSIG
  • 141730Z AUTO 30010KT 270V340 9999 SCT047 SCT064 25/13 Q1020 NOSIG
  • 141700Z AUTO 31009KT 9999 FEW045 SCT072 24/13 Q1020 NOSIG
  • 141630Z AUTO 31007KT 260V330 9999 FEW046 SCT072 24/14 Q1020 NOSIG
  • 141600Z AUTO 30010KT 240V340 9999 SCT046 BKN052 BKN072 25/14 Q1020 NOSIG

TAF TAF LFSL
Valid from the 14 at 15:00 until the 15 at 00:00 UTC


141400Z 1415/1424 33008KT CAVOK
No reported NOTAMs for that airfield.



MET'MAP, your aeronautical weather chart ! - Copyright ORBIFLY December 2007 - Disclaimer

ORBIFLY MET'MAP TEAM :

Programming & Development : Alexandra Zaïnal
Concept & Development : Baudouin d'Aumeries
Co-Development & Prog : Marc-Olivier Méhu
Technical & hardware support : Manuel Goepfert

Contact : metmap@orbifly.com




SOURCES & CREDITS :

   NOAA